nws-alerts: Checking more than four warning/county codes can delay the loading of your pages. You should use a cron job to get the data.

Nearby METAR Reports

 

KOXC - Oxford/Waterbury, Connecticut, USA
Distance from station: NW 7mi, 11km
Updated: 09/30/2020 10:51am
Overcast
Overcast
 Wind from W
Wind: W 9 mph , 15 km/h, Gust: 16 mph , 26 km/h
Temperature: 61°F , 16°C
Dew Point: 55°F , 13°C
Humidity: 83%
Barometer: 29.66 inHg , 1004.4 hPa
Clouds: Overcast
Visibility: 10 miles , 16 km
Cloud details: Overcast 1700 ft
2020/09/30 14:51 KOXC 301451Z 26008G14KT 220V280 10SM OVC017 16/13 A2966 RMK AO2 SLP052 60002 T01560133 51039
KHVN - New Haven/Tweed, Connecticut, USA
Distance from station: SE 13mi, 20km
Updated: 09/30/2020 10:53am
Overcast
Overcast
 Wind from W
Wind: W 16 mph , 26 km/h, Gust: 23 mph , 37 km/h
Temperature: 66°F , 19°C
Dew Point: 57°F , 14°C
Humidity: 73%
Barometer: 29.65 inHg , 1004.1 hPa
Clouds: Overcast
Visibility: 10 miles , 16 km
Cloud details: Mostly cloudy 2400 ft
Overcast 3200 ft
2020/09/30 14:53 KHVN 301453Z 26014G20KT 10SM BKN024 OVC032 19/14 A2965 RMK AO2 SLP040 T01890144 51042 $
 
KMMK - Meriden, Connecticut, USA
Distance from station: NE 13mi, 21km
Updated: 09/30/2020 11:51am
unable to load KMMK data RC=
unable to load KMMK data RC=
 
KBDR - Bridgeport, Connecticut, USA
Distance from station: SSW 17mi, 27km
Updated: 09/30/2020 11:31am
Mostly cloudy
Mostly cloudy
 Wind from WSW
Wind: WSW 14 mph , 22 km/h, Gust: 23 mph , 37 km/h
Temperature: 66°F , 19°C
Dew Point: 55°F , 13°C
Humidity: 68%
Barometer: 29.67 inHg , 1004.7 hPa
Clouds: Mostly cloudy
Visibility: 10 miles , 16 km
Cloud details: Partly cloudy 2600 ft
Mostly cloudy 4100 ft
2020/09/30 15:31 KBDR 301531Z 25012G20KT 10SM SCT026 BKN041 19/13 A2967 RMK AO2 T01940128
 
KDXR - Danbury, Connecticut, USA
Distance from station: W 23mi, 38km
Updated: 09/30/2020 10:53am
Overcast
Overcast
 Wind from WSW
Wind: WSW 9 mph , 15 km/h, Gust: 20 mph , 31 km/h
Temperature: 61°F , 16°C
Dew Point: 54°F , 12°C
Humidity: 77%
Barometer: 29.67 inHg , 1004.7 hPa
Clouds: Overcast
Visibility: 10 miles , 16 km
Cloud details: Mostly cloudy 1800 ft
Mostly cloudy 4000 ft
Overcast 4800 ft
2020/09/30 14:53 KDXR 301453Z 25008G17KT 10SM BKN018 BKN040 OVC048 16/12 A2967 RMK AO2 RAB09E18 SLP045 P0000 60000 T01610122 53025